sensor_id;sensor_type;location;lat;lon;timestamp;P1;durP1;ratioP1;P2;durP2;ratioP2
17987;SDS011;9119;50.932;5.342;2023-04-07T00:01:31;56.13;;;22.27;;
17987;SDS011;9119;50.932;5.342;2023-04-07T00:03:56;55.27;;;22.63;;
17987;SDS011;9119;50.932;5.342;2023-04-07T00:06:22;65.20;;;22.47;;
17987;SDS011;9119;50.932;5.342;2023-04-07T00:08:48;56.13;;;20.77;;
17987;SDS011;9119;50.932;5.342;2023-04-07T00:11:13;129.57;;;48.00;;
17987;SDS011;9119;50.932;5.342;2023-04-07T00:13:39;51.80;;;23.03;;
17987;SDS011;9119;50.932;5.342;2023-04-07T00:16:05;44.47;;;19.97;;
17987;SDS011;9119;50.932;5.342;2023-04-07T00:18:31;59.03;;;23.37;;
17987;SDS011;9119;50.932;5.342;2023-04-07T00:20:56;49.83;;;20.00;;
17987;SDS011;9119;50.932;5.342;2023-04-07T00:23:22;45.70;;;18.20;;
17987;SDS011;9119;50.932;5.342;2023-04-07T00:25:48;42.93;;;18.50;;
17987;SDS011;9119;50.932;5.342;2023-04-07T00:28:13;45.43;;;18.33;;
17987;SDS011;9119;50.932;5.342;2023-04-07T00:30:39;42.77;;;16.93;;
17987;SDS011;9119;50.932;5.342;2023-04-07T00:33:05;45.77;;;18.43;;
17987;SDS011;9119;50.932;5.342;2023-04-07T00:35:30;44.53;;;18.90;;
17987;SDS011;9119;50.932;5.342;2023-04-07T00:37:56;44.53;;;17.97;;
17987;SDS011;9119;50.932;5.342;2023-04-07T00:40:22;41.63;;;17.67;;
17987;SDS011;9119;50.932;5.342;2023-04-07T00:42:48;45.00;;;17.00;;
17987;SDS011;9119;50.932;5.342;2023-04-07T00:45:13;41.87;;;16.80;;
17987;SDS011;9119;50.932;5.342;2023-04-07T00:47:39;42.40;;;17.13;;
17987;SDS011;9119;50.932;5.342;2023-04-07T00:50:05;42.20;;;17.37;;
17987;SDS011;9119;50.932;5.342;2023-04-07T00:52:32;41.50;;;16.37;;
17987;SDS011;9119;50.932;5.342;2023-04-07T00:54:58;49.80;;;17.17;;
17987;SDS011;9119;50.932;5.342;2023-04-07T00:57:24;42.53;;;17.53;;
17987;SDS011;9119;50.932;5.342;2023-04-07T00:59:50;46.13;;;16.57;;
17987;SDS011;9119;50.932;5.342;2023-04-07T01:02:17;47.77;;;18.33;;
17987;SDS011;9119;50.932;5.342;2023-04-07T01:08:08;45.27;;;17.90;;
17987;SDS011;9119;50.932;5.342;2023-04-07T01:15:49;43.27;;;17.57;;
17987;SDS011;9119;50.932;5.342;2023-04-07T01:18:19;45.93;;;18.27;;
17987;SDS011;9119;50.932;5.342;2023-04-07T01:20:49;37.13;;;16.63;;
17987;SDS011;9119;50.932;5.342;2023-04-07T01:23:20;47.73;;;18.47;;
17987;SDS011;9119;50.932;5.342;2023-04-07T01:25:59;44.93;;;16.73;;
17987;SDS011;9119;50.932;5.342;2023-04-07T01:31:36;49.17;;;17.60;;
17987;SDS011;9119;50.932;5.342;2023-04-07T01:34:05;49.47;;;18.67;;
17987;SDS011;9119;50.932;5.342;2023-04-07T01:36:33;45.13;;;19.30;;
17987;SDS011;9119;50.932;5.342;2023-04-07T01:38:59;42.57;;;18.53;;
17987;SDS011;9119;50.932;5.342;2023-04-07T01:41:25;54.13;;;19.13;;
17987;SDS011;9119;50.932;5.342;2023-04-07T01:43:52;47.00;;;20.30;;
17987;SDS011;9119;50.932;5.342;2023-04-07T01:46:19;52.30;;;20.53;;
17987;SDS011;9119;50.932;5.342;2023-04-07T01:48:46;57.90;;;21.67;;
17987;SDS011;9119;50.932;5.342;2023-04-07T01:51:13;53.93;;;21.80;;
17987;SDS011;9119;50.932;5.342;2023-04-07T01:53:44;52.50;;;21.13;;
17987;SDS011;9119;50.932;5.342;2023-04-07T01:56:10;59.67;;;22.47;;
17987;SDS011;9119;50.932;5.342;2023-04-07T01:58:36;51.60;;;21.30;;
17987;SDS011;9119;50.932;5.342;2023-04-07T02:01:02;57.73;;;20.37;;
17987;SDS011;9119;50.932;5.342;2023-04-07T02:03:37;47.00;;;20.10;;
17987;SDS011;9119;50.932;5.342;2023-04-07T02:06:08;60.63;;;21.63;;
17987;SDS011;9119;50.932;5.342;2023-04-07T02:08:38;46.30;;;19.40;;
17987;SDS011;9119;50.932;5.342;2023-04-07T02:11:10;57.70;;;19.93;;
17987;SDS011;9119;50.932;5.342;2023-04-07T02:13:37;57.53;;;20.70;;
17987;SDS011;9119;50.932;5.342;2023-04-07T02:16:04;54.17;;;21.23;;
17987;SDS011;9119;50.932;5.342;2023-04-07T02:18:31;51.73;;;19.57;;
17987;SDS011;9119;50.932;5.342;2023-04-07T02:20:57;48.57;;;19.27;;
17987;SDS011;9119;50.932;5.342;2023-04-07T02:23:24;50.37;;;19.37;;
17987;SDS011;9119;50.932;5.342;2023-04-07T02:25:50;51.93;;;18.93;;
17987;SDS011;9119;50.932;5.342;2023-04-07T02:28:16;50.20;;;19.93;;
17987;SDS011;9119;50.932;5.342;2023-04-07T02:30:41;51.10;;;19.87;;
17987;SDS011;9119;50.932;5.342;2023-04-07T02:33:07;50.80;;;19.90;;
17987;SDS011;9119;50.932;5.342;2023-04-07T02:35:32;51.93;;;20.33;;
17987;SDS011;9119;50.932;5.342;2023-04-07T02:37:58;46.37;;;18.90;;
17987;SDS011;9119;50.932;5.342;2023-04-07T02:40:24;46.83;;;18.77;;
17987;SDS011;9119;50.932;5.342;2023-04-07T02:42:50;54.03;;;20.73;;
17987;SDS011;9119;50.932;5.342;2023-04-07T02:45:15;60.13;;;21.27;;
17987;SDS011;9119;50.932;5.342;2023-04-07T02:47:41;54.47;;;20.83;;
17987;SDS011;9119;50.932;5.342;2023-04-07T02:50:07;59.27;;;21.93;;
17987;SDS011;9119;50.932;5.342;2023-04-07T02:52:32;64.93;;;21.77;;
17987;SDS011;9119;50.932;5.342;2023-04-07T02:54:58;60.47;;;23.67;;
17987;SDS011;9119;50.932;5.342;2023-04-07T02:57:25;60.53;;;23.33;;
17987;SDS011;9119;50.932;5.342;2023-04-07T02:59:50;66.23;;;24.00;;
17987;SDS011;9119;50.932;5.342;2023-04-07T03:02:16;64.17;;;25.30;;
17987;SDS011;9119;50.932;5.342;2023-04-07T03:04:41;76.77;;;28.70;;
17987;SDS011;9119;50.932;5.342;2023-04-07T03:07:07;65.23;;;23.87;;
17987;SDS011;9119;50.932;5.342;2023-04-07T03:09:33;68.90;;;24.70;;
17987;SDS011;9119;50.932;5.342;2023-04-07T03:11:59;66.90;;;25.80;;
17987;SDS011;9119;50.932;5.342;2023-04-07T03:14:26;65.43;;;24.90;;
17987;SDS011;9119;50.932;5.342;2023-04-07T03:16:52;70.50;;;25.27;;
17987;SDS011;9119;50.932;5.342;2023-04-07T03:19:17;73.13;;;26.27;;
17987;SDS011;9119;50.932;5.342;2023-04-07T03:21:43;75.20;;;26.67;;
17987;SDS011;9119;50.932;5.342;2023-04-07T03:24:09;77.47;;;26.60;;
17987;SDS011;9119;50.932;5.342;2023-04-07T03:26:34;69.17;;;26.13;;
17987;SDS011;9119;50.932;5.342;2023-04-07T03:29:00;72.30;;;26.07;;
17987;SDS011;9119;50.932;5.342;2023-04-07T03:31:26;70.03;;;27.17;;
17987;SDS011;9119;50.932;5.342;2023-04-07T03:33:51;70.70;;;27.47;;
17987;SDS011;9119;50.932;5.342;2023-04-07T03:36:17;74.60;;;28.23;;
17987;SDS011;9119;50.932;5.342;2023-04-07T03:38:43;71.83;;;26.60;;
17987;SDS011;9119;50.932;5.342;2023-04-07T03:41:10;66.20;;;26.63;;
17987;SDS011;9119;50.932;5.342;2023-04-07T03:43:36;69.80;;;27.70;;
17987;SDS011;9119;50.932;5.342;2023-04-07T03:46:02;73.07;;;27.97;;
17987;SDS011;9119;50.932;5.342;2023-04-07T03:48:27;75.60;;;26.33;;
17987;SDS011;9119;50.932;5.342;2023-04-07T03:50:53;73.97;;;27.53;;
17987;SDS011;9119;50.932;5.342;2023-04-07T03:53:19;75.37;;;27.93;;
17987;SDS011;9119;50.932;5.342;2023-04-07T03:55:45;70.03;;;27.67;;
17987;SDS011;9119;50.932;5.342;2023-04-07T03:58:11;75.03;;;27.17;;
17987;SDS011;9119;50.932;5.342;2023-04-07T04:00:37;68.13;;;27.20;;
17987;SDS011;9119;50.932;5.342;2023-04-07T04:03:03;71.03;;;28.40;;
17987;SDS011;9119;50.932;5.342;2023-04-07T04:05:29;78.37;;;28.10;;
17987;SDS011;9119;50.932;5.342;2023-04-07T04:07:55;72.63;;;28.47;;
17987;SDS011;9119;50.932;5.342;2023-04-07T04:10:21;73.27;;;28.37;;
17987;SDS011;9119;50.932;5.342;2023-04-07T04:12:47;74.60;;;27.93;;
17987;SDS011;9119;50.932;5.342;2023-04-07T04:15:13;75.10;;;28.93;;
17987;SDS011;9119;50.932;5.342;2023-04-07T04:17:39;74.00;;;27.30;;
17987;SDS011;9119;50.932;5.342;2023-04-07T04:20:06;72.07;;;28.40;;
17987;SDS011;9119;50.932;5.342;2023-04-07T04:22:32;74.90;;;28.43;;
17987;SDS011;9119;50.932;5.342;2023-04-07T04:24:58;78.40;;;28.83;;
17987;SDS011;9119;50.932;5.342;2023-04-07T04:27:25;151.90;;;56.90;;
17987;SDS011;9119;50.932;5.342;2023-04-07T04:29:51;85.77;;;28.30;;
17987;SDS011;9119;50.932;5.342;2023-04-07T04:32:17;71.33;;;29.37;;
17987;SDS011;9119;50.932;5.342;2023-04-07T04:34:43;79.60;;;30.57;;
17987;SDS011;9119;50.932;5.342;2023-04-07T04:37:09;80.43;;;29.33;;
17987;SDS011;9119;50.932;5.342;2023-04-07T04:39:35;68.50;;;28.40;;
17987;SDS011;9119;50.932;5.342;2023-04-07T04:42:01;72.80;;;27.77;;
17987;SDS011;9119;50.932;5.342;2023-04-07T04:44:27;77.40;;;30.30;;
17987;SDS011;9119;50.932;5.342;2023-04-07T04:46:54;80.47;;;29.30;;
17987;SDS011;9119;50.932;5.342;2023-04-07T04:49:20;82.00;;;29.17;;
17987;SDS011;9119;50.932;5.342;2023-04-07T04:51:46;66.23;;;26.43;;
17987;SDS011;9119;50.932;5.342;2023-04-07T04:54:12;73.70;;;27.67;;
17987;SDS011;9119;50.932;5.342;2023-04-07T04:56:37;78.73;;;29.30;;
17987;SDS011;9119;50.932;5.342;2023-04-07T04:59:03;75.67;;;29.57;;
17987;SDS011;9119;50.932;5.342;2023-04-07T05:01:29;79.23;;;29.50;;
17987;SDS011;9119;50.932;5.342;2023-04-07T05:03:55;82.03;;;30.07;;
17987;SDS011;9119;50.932;5.342;2023-04-07T05:06:21;85.17;;;29.83;;
17987;SDS011;9119;50.932;5.342;2023-04-07T05:08:47;86.37;;;29.40;;
17987;SDS011;9119;50.932;5.342;2023-04-07T05:11:13;80.13;;;27.10;;
17987;SDS011;9119;50.932;5.342;2023-04-07T05:13:38;79.23;;;29.23;;
17987;SDS011;9119;50.932;5.342;2023-04-07T05:16:04;75.03;;;28.40;;
17987;SDS011;9119;50.932;5.342;2023-04-07T05:18:30;72.30;;;27.47;;
17987;SDS011;9119;50.932;5.342;2023-04-07T05:20:56;73.93;;;28.20;;
17987;SDS011;9119;50.932;5.342;2023-04-07T05:23:22;80.93;;;28.67;;
17987;SDS011;9119;50.932;5.342;2023-04-07T05:25:48;83.80;;;29.33;;
17987;SDS011;9119;50.932;5.342;2023-04-07T05:28:14;73.47;;;29.20;;
17987;SDS011;9119;50.932;5.342;2023-04-07T05:30:40;89.13;;;28.40;;
17987;SDS011;9119;50.932;5.342;2023-04-07T05:33:06;77.93;;;29.13;;
17987;SDS011;9119;50.932;5.342;2023-04-07T05:35:31;74.50;;;27.37;;
17987;SDS011;9119;50.932;5.342;2023-04-07T05:37:57;82.80;;;30.20;;
17987;SDS011;9119;50.932;5.342;2023-04-07T05:40:23;82.30;;;30.00;;
17987;SDS011;9119;50.932;5.342;2023-04-07T05:42:48;94.40;;;30.77;;
17987;SDS011;9119;50.932;5.342;2023-04-07T05:45:14;84.97;;;30.77;;
17987;SDS011;9119;50.932;5.342;2023-04-07T05:47:40;88.87;;;31.37;;
17987;SDS011;9119;50.932;5.342;2023-04-07T05:50:06;82.37;;;30.73;;
17987;SDS011;9119;50.932;5.342;2023-04-07T05:52:32;90.87;;;31.33;;
17987;SDS011;9119;50.932;5.342;2023-04-07T05:54:58;81.63;;;29.10;;
17987;SDS011;9119;50.932;5.342;2023-04-07T05:57:24;81.37;;;29.67;;
17987;SDS011;9119;50.932;5.342;2023-04-07T05:59:52;75.20;;;28.07;;
17987;SDS011;9119;50.932;5.342;2023-04-07T06:02:17;78.80;;;29.00;;
17987;SDS011;9119;50.932;5.342;2023-04-07T06:04:43;81.33;;;27.33;;
17987;SDS011;9119;50.932;5.342;2023-04-07T06:07:09;73.70;;;25.60;;
17987;SDS011;9119;50.932;5.342;2023-04-07T06:09:35;64.80;;;23.40;;
17987;SDS011;9119;50.932;5.342;2023-04-07T06:12:00;58.03;;;21.93;;
17987;SDS011;9119;50.932;5.342;2023-04-07T06:14:29;55.63;;;21.50;;
17987;SDS011;9119;50.932;5.342;2023-04-07T06:16:54;64.80;;;21.73;;
17987;SDS011;9119;50.932;5.342;2023-04-07T06:19:20;61.43;;;21.30;;
17987;SDS011;9119;50.932;5.342;2023-04-07T06:21:46;54.13;;;20.53;;
17987;SDS011;9119;50.932;5.342;2023-04-07T06:24:11;55.63;;;19.80;;
17987;SDS011;9119;50.932;5.342;2023-04-07T06:26:38;62.90;;;21.27;;
17987;SDS011;9119;50.932;5.342;2023-04-07T06:29:04;68.13;;;23.83;;
17987;SDS011;9119;50.932;5.342;2023-04-07T06:31:30;66.60;;;22.50;;
17987;SDS011;9119;50.932;5.342;2023-04-07T06:33:56;74.73;;;23.83;;
17987;SDS011;9119;50.932;5.342;2023-04-07T06:36:22;62.73;;;23.63;;
17987;SDS011;9119;50.932;5.342;2023-04-07T06:38:47;68.83;;;21.97;;
17987;SDS011;9119;50.932;5.342;2023-04-07T06:41:13;56.53;;;21.63;;
17987;SDS011;9119;50.932;5.342;2023-04-07T06:43:41;61.60;;;20.60;;
17987;SDS011;9119;50.932;5.342;2023-04-07T06:46:11;62.00;;;22.53;;
17987;SDS011;9119;50.932;5.342;2023-04-07T06:48:37;66.67;;;23.40;;
17987;SDS011;9119;50.932;5.342;2023-04-07T06:51:02;62.03;;;22.23;;
17987;SDS011;9119;50.932;5.342;2023-04-07T06:53:28;70.67;;;22.70;;
17987;SDS011;9119;50.932;5.342;2023-04-07T06:58:32;63.43;;;21.67;;
17987;SDS011;9119;50.932;5.342;2023-04-07T07:00:59;59.03;;;21.77;;
17987;SDS011;9119;50.932;5.342;2023-04-07T07:03:26;70.50;;;22.57;;
17987;SDS011;9119;50.932;5.342;2023-04-07T07:05:53;55.13;;;21.00;;
17987;SDS011;9119;50.932;5.342;2023-04-07T07:08:23;63.57;;;21.03;;
17987;SDS011;9119;50.932;5.342;2023-04-07T07:10:53;58.07;;;21.43;;
17987;SDS011;9119;50.932;5.342;2023-04-07T07:13:21;62.80;;;21.37;;
17987;SDS011;9119;50.932;5.342;2023-04-07T07:15:48;68.60;;;21.87;;
17987;SDS011;9119;50.932;5.342;2023-04-07T07:18:15;60.27;;;20.83;;
17987;SDS011;9119;50.932;5.342;2023-04-07T07:20:41;59.33;;;20.87;;
17987;SDS011;9119;50.932;5.342;2023-04-07T07:23:07;63.80;;;21.97;;
17987;SDS011;9119;50.932;5.342;2023-04-07T07:25:33;71.73;;;21.50;;
17987;SDS011;9119;50.932;5.342;2023-04-07T07:27:58;64.33;;;21.47;;
17987;SDS011;9119;50.932;5.342;2023-04-07T07:30:24;62.07;;;20.10;;
17987;SDS011;9119;50.932;5.342;2023-04-07T07:32:50;59.90;;;22.43;;
17987;SDS011;9119;50.932;5.342;2023-04-07T07:35:17;66.10;;;22.20;;
17987;SDS011;9119;50.932;5.342;2023-04-07T07:37:44;55.60;;;20.50;;
17987;SDS011;9119;50.932;5.342;2023-04-07T07:40:09;66.07;;;21.90;;
17987;SDS011;9119;50.932;5.342;2023-04-07T07:42:35;59.20;;;22.07;;
17987;SDS011;9119;50.932;5.342;2023-04-07T07:45:01;54.03;;;19.23;;
17987;SDS011;9119;50.932;5.342;2023-04-07T07:47:28;43.53;;;18.23;;
17987;SDS011;9119;50.932;5.342;2023-04-07T07:49:53;38.80;;;16.50;;
17987;SDS011;9119;50.932;5.342;2023-04-07T07:52:19;38.23;;;16.70;;
17987;SDS011;9119;50.932;5.342;2023-04-07T07:54:46;37.57;;;17.23;;
17987;SDS011;9119;50.932;5.342;2023-04-07T07:57:12;44.27;;;16.70;;
17987;SDS011;9119;50.932;5.342;2023-04-07T07:59:38;40.27;;;15.87;;
17987;SDS011;9119;50.932;5.342;2023-04-07T08:02:06;39.13;;;15.60;;
17987;SDS011;9119;50.932;5.342;2023-04-07T08:04:33;37.53;;;14.60;;
17987;SDS011;9119;50.932;5.342;2023-04-07T08:07:00;38.33;;;17.60;;
17987;SDS011;9119;50.932;5.342;2023-04-07T08:09:26;45.47;;;17.67;;
17987;SDS011;9119;50.932;5.342;2023-04-07T08:11:52;45.40;;;18.80;;
17987;SDS011;9119;50.932;5.342;2023-04-07T08:14:18;40.30;;;17.43;;
17987;SDS011;9119;50.932;5.342;2023-04-07T08:16:44;44.10;;;17.30;;
17987;SDS011;9119;50.932;5.342;2023-04-07T08:19:10;34.30;;;16.50;;
17987;SDS011;9119;50.932;5.342;2023-04-07T08:21:37;37.20;;;17.47;;
17987;SDS011;9119;50.932;5.342;2023-04-07T08:24:03;39.17;;;17.93;;
17987;SDS011;9119;50.932;5.342;2023-04-07T08:26:29;31.73;;;15.17;;
17987;SDS011;9119;50.932;5.342;2023-04-07T08:28:55;38.03;;;16.87;;
17987;SDS011;9119;50.932;5.342;2023-04-07T08:31:22;30.50;;;15.23;;
17987;SDS011;9119;50.932;5.342;2023-04-07T08:33:48;37.37;;;16.80;;
17987;SDS011;9119;50.932;5.342;2023-04-07T08:36:18;41.50;;;18.10;;
17987;SDS011;9119;50.932;5.342;2023-04-07T08:38:46;44.93;;;19.33;;
17987;SDS011;9119;50.932;5.342;2023-04-07T08:41:12;40.17;;;18.23;;
17987;SDS011;9119;50.932;5.342;2023-04-07T08:43:44;42.80;;;19.57;;
17987;SDS011;9119;50.932;5.342;2023-04-07T08:46:13;46.20;;;18.30;;
17987;SDS011;9119;50.932;5.342;2023-04-07T08:48:39;40.80;;;17.83;;
17987;SDS011;9119;50.932;5.342;2023-04-07T08:51:08;38.53;;;17.20;;
17987;SDS011;9119;50.932;5.342;2023-04-07T08:53:42;36.53;;;16.67;;
17987;SDS011;9119;50.932;5.342;2023-04-07T08:56:14;34.53;;;16.90;;
17987;SDS011;9119;50.932;5.342;2023-04-07T08:58:46;33.37;;;15.60;;
17987;SDS011;9119;50.932;5.342;2023-04-07T09:01:12;32.23;;;15.83;;
17987;SDS011;9119;50.932;5.342;2023-04-07T09:03:40;39.30;;;14.20;;
17987;SDS011;9119;50.932;5.342;2023-04-07T09:06:08;28.90;;;14.53;;
17987;SDS011;9119;50.932;5.342;2023-04-07T09:08:35;30.13;;;13.67;;
17987;SDS011;9119;50.932;5.342;2023-04-07T09:11:01;34.70;;;14.20;;
17987;SDS011;9119;50.932;5.342;2023-04-07T09:13:27;29.20;;;13.87;;
17987;SDS011;9119;50.932;5.342;2023-04-07T09:15:53;26.03;;;14.03;;
17987;SDS011;9119;50.932;5.342;2023-04-07T09:18:19;25.90;;;13.30;;
17987;SDS011;9119;50.932;5.342;2023-04-07T09:25:53;23.93;;;11.90;;
17987;SDS011;9119;50.932;5.342;2023-04-07T09:28:19;30.47;;;12.77;;
17987;SDS011;9119;50.932;5.342;2023-04-07T09:30:53;20.73;;;10.00;;
17987;SDS011;9119;50.932;5.342;2023-04-07T09:33:28;24.27;;;10.20;;
17987;SDS011;9119;50.932;5.342;2023-04-07T09:35:54;23.30;;;11.13;;
17987;SDS011;9119;50.932;5.342;2023-04-07T09:38:20;27.10;;;12.47;;
17987;SDS011;9119;50.932;5.342;2023-04-07T09:40:46;21.97;;;10.80;;
17987;SDS011;9119;50.932;5.342;2023-04-07T09:43:15;21.33;;;10.50;;
17987;SDS011;9119;50.932;5.342;2023-04-07T09:45:42;29.57;;;12.03;;
17987;SDS011;9119;50.932;5.342;2023-04-07T09:48:18;22.80;;;10.97;;
17987;SDS011;9119;50.932;5.342;2023-04-07T09:50:45;18.57;;;10.87;;
17987;SDS011;9119;50.932;5.342;2023-04-07T09:53:14;26.50;;;11.30;;
17987;SDS011;9119;50.932;5.342;2023-04-07T09:55:40;24.90;;;10.53;;
17987;SDS011;9119;50.932;5.342;2023-04-07T09:58:07;36.80;;;12.07;;
17987;SDS011;9119;50.932;5.342;2023-04-07T10:00:37;23.70;;;10.30;;
17987;SDS011;9119;50.932;5.342;2023-04-07T10:03:03;23.50;;;10.30;;
17987;SDS011;9119;50.932;5.342;2023-04-07T10:05:30;20.63;;;9.67;;
17987;SDS011;9119;50.932;5.342;2023-04-07T10:07:59;21.00;;;10.67;;
17987;SDS011;9119;50.932;5.342;2023-04-07T10:10:26;15.73;;;9.77;;
17987;SDS011;9119;50.932;5.342;2023-04-07T10:12:54;17.63;;;10.27;;
17987;SDS011;9119;50.932;5.342;2023-04-07T10:15:21;11.77;;;6.87;;
17987;SDS011;9119;50.932;5.342;2023-04-07T10:17:47;13.83;;;7.03;;
17987;SDS011;9119;50.932;5.342;2023-04-07T10:20:15;14.47;;;6.70;;
17987;SDS011;9119;50.932;5.342;2023-04-07T10:22:44;14.90;;;7.17;;
17987;SDS011;9119;50.932;5.342;2023-04-07T10:25:13;20.60;;;6.90;;
17987;SDS011;9119;50.932;5.342;2023-04-07T10:27:42;13.77;;;7.43;;
17987;SDS011;9119;50.932;5.342;2023-04-07T10:30:26;18.20;;;7.37;;
17987;SDS011;9119;50.932;5.342;2023-04-07T10:32:55;13.40;;;7.70;;
17987;SDS011;9119;50.932;5.342;2023-04-07T10:35:21;15.60;;;7.50;;
17987;SDS011;9119;50.932;5.342;2023-04-07T10:40:31;16.80;;;8.13;;
17987;SDS011;9119;50.932;5.342;2023-04-07T10:42:57;20.23;;;9.07;;
17987;SDS011;9119;50.932;5.342;2023-04-07T10:48:11;13.47;;;7.97;;
17987;SDS011;9119;50.932;5.342;2023-04-07T10:50:37;18.23;;;9.13;;
17987;SDS011;9119;50.932;5.342;2023-04-07T10:53:07;15.40;;;8.57;;
17987;SDS011;9119;50.932;5.342;2023-04-07T10:55:36;14.43;;;8.07;;
17987;SDS011;9119;50.932;5.342;2023-04-07T10:58:23;17.77;;;8.57;;
17987;SDS011;9119;50.932;5.342;2023-04-07T11:03:33;17.47;;;9.10;;
17987;SDS011;9119;50.932;5.342;2023-04-07T11:06:07;19.10;;;9.03;;
17987;SDS011;9119;50.932;5.342;2023-04-07T11:08:34;21.07;;;9.10;;
17987;SDS011;9119;50.932;5.342;2023-04-07T11:11:05;16.23;;;8.37;;
17987;SDS011;9119;50.932;5.342;2023-04-07T11:13:43;17.90;;;8.20;;
17987;SDS011;9119;50.932;5.342;2023-04-07T11:16:11;20.40;;;9.20;;
17987;SDS011;9119;50.932;5.342;2023-04-07T11:18:37;14.40;;;8.23;;
17987;SDS011;9119;50.932;5.342;2023-04-07T11:21:04;15.43;;;7.60;;
17987;SDS011;9119;50.932;5.342;2023-04-07T11:23:40;9.90;;;6.97;;
17987;SDS011;9119;50.932;5.342;2023-04-07T11:26:08;16.60;;;6.77;;
17987;SDS011;9119;50.932;5.342;2023-04-07T11:28:35;13.50;;;6.83;;
17987;SDS011;9119;50.932;5.342;2023-04-07T11:31:24;14.77;;;6.40;;
17987;SDS011;9119;50.932;5.342;2023-04-07T11:34:02;16.80;;;6.57;;
17987;SDS011;9119;50.932;5.342;2023-04-07T11:36:30;19.60;;;7.90;;
17987;SDS011;9119;50.932;5.342;2023-04-07T11:38:57;13.20;;;6.70;;
17987;SDS011;9119;50.932;5.342;2023-04-07T11:41:24;19.97;;;7.43;;
17987;SDS011;9119;50.932;5.342;2023-04-07T11:44:04;24.63;;;7.63;;
17987;SDS011;9119;50.932;5.342;2023-04-07T11:46:34;19.67;;;8.40;;
17987;SDS011;9119;50.932;5.342;2023-04-07T11:49:07;18.40;;;7.77;;
17987;SDS011;9119;50.932;5.342;2023-04-07T11:51:34;17.07;;;7.40;;
17987;SDS011;9119;50.932;5.342;2023-04-07T11:54:00;17.67;;;7.93;;
17987;SDS011;9119;50.932;5.342;2023-04-07T11:56:26;17.50;;;7.13;;
17987;SDS011;9119;50.932;5.342;2023-04-07T11:58:52;11.93;;;7.20;;
17987;SDS011;9119;50.932;5.342;2023-04-07T12:01:19;11.40;;;6.63;;
17987;SDS011;9119;50.932;5.342;2023-04-07T12:06:26;13.63;;;5.93;;
17987;SDS011;9119;50.932;5.342;2023-04-07T12:08:58;11.93;;;6.20;;
17987;SDS011;9119;50.932;5.342;2023-04-07T12:11:25;9.10;;;5.77;;
17987;SDS011;9119;50.932;5.342;2023-04-07T12:13:51;9.27;;;5.43;;
17987;SDS011;9119;50.932;5.342;2023-04-07T12:16:17;14.87;;;6.07;;
17987;SDS011;9119;50.932;5.342;2023-04-07T12:18:43;10.13;;;5.40;;
17987;SDS011;9119;50.932;5.342;2023-04-07T12:21:09;13.17;;;6.30;;
17987;SDS011;9119;50.932;5.342;2023-04-07T12:23:34;15.80;;;7.40;;
17987;SDS011;9119;50.932;5.342;2023-04-07T12:26:00;17.30;;;7.53;;
17987;SDS011;9119;50.932;5.342;2023-04-07T12:28:26;20.27;;;8.77;;
17987;SDS011;9119;50.932;5.342;2023-04-07T12:30:53;19.47;;;8.00;;
17987;SDS011;9119;50.932;5.342;2023-04-07T12:33:19;22.17;;;8.37;;
17987;SDS011;9119;50.932;5.342;2023-04-07T12:35:45;17.63;;;8.50;;
17987;SDS011;9119;50.932;5.342;2023-04-07T12:38:11;16.63;;;7.43;;
17987;SDS011;9119;50.932;5.342;2023-04-07T12:40:36;22.10;;;7.40;;
17987;SDS011;9119;50.932;5.342;2023-04-07T12:43:02;17.77;;;8.17;;
17987;SDS011;9119;50.932;5.342;2023-04-07T12:45:29;17.47;;;8.60;;
17987;SDS011;9119;50.932;5.342;2023-04-07T12:47:55;19.87;;;8.40;;
17987;SDS011;9119;50.932;5.342;2023-04-07T12:50:21;19.37;;;8.83;;
17987;SDS011;9119;50.932;5.342;2023-04-07T12:52:49;25.60;;;9.07;;
17987;SDS011;9119;50.932;5.342;2023-04-07T12:55:16;20.13;;;8.73;;
17987;SDS011;9119;50.932;5.342;2023-04-07T12:57:42;18.73;;;8.73;;
17987;SDS011;9119;50.932;5.342;2023-04-07T13:00:08;32.80;;;10.60;;
17987;SDS011;9119;50.932;5.342;2023-04-07T13:02:34;23.67;;;11.20;;
17987;SDS011;9119;50.932;5.342;2023-04-07T13:05:03;22.60;;;10.57;;
17987;SDS011;9119;50.932;5.342;2023-04-07T13:07:29;22.30;;;10.33;;
17987;SDS011;9119;50.932;5.342;2023-04-07T13:09:54;25.57;;;11.47;;
17987;SDS011;9119;50.932;5.342;2023-04-07T13:12:21;19.43;;;9.90;;
17987;SDS011;9119;50.932;5.342;2023-04-07T13:14:47;17.03;;;8.13;;
17987;SDS011;9119;50.932;5.342;2023-04-07T13:17:13;15.27;;;5.80;;
17987;SDS011;9119;50.932;5.342;2023-04-07T13:19:39;13.57;;;5.50;;
17987;SDS011;9119;50.932;5.342;2023-04-07T13:22:05;12.73;;;5.47;;
17987;SDS011;9119;50.932;5.342;2023-04-07T13:24:30;12.83;;;5.40;;
17987;SDS011;9119;50.932;5.342;2023-04-07T13:26:56;10.00;;;5.03;;
17987;SDS011;9119;50.932;5.342;2023-04-07T13:29:22;19.63;;;5.03;;
17987;SDS011;9119;50.932;5.342;2023-04-07T13:31:48;17.00;;;4.90;;
17987;SDS011;9119;50.932;5.342;2023-04-07T13:34:14;11.27;;;4.33;;
17987;SDS011;9119;50.932;5.342;2023-04-07T13:36:41;23.73;;;4.90;;
17987;SDS011;9119;50.932;5.342;2023-04-07T13:39:06;25.37;;;7.77;;
17987;SDS011;9119;50.932;5.342;2023-04-07T13:41:33;13.23;;;4.67;;
17987;SDS011;9119;50.932;5.342;2023-04-07T13:43:59;13.40;;;4.67;;
17987;SDS011;9119;50.932;5.342;2023-04-07T13:46:25;21.73;;;5.83;;
17987;SDS011;9119;50.932;5.342;2023-04-07T13:48:51;13.50;;;5.33;;
17987;SDS011;9119;50.932;5.342;2023-04-07T13:51:17;14.77;;;5.83;;
17987;SDS011;9119;50.932;5.342;2023-04-07T13:53:44;13.03;;;6.10;;
17987;SDS011;9119;50.932;5.342;2023-04-07T13:56:10;11.03;;;4.40;;
17987;SDS011;9119;50.932;5.342;2023-04-07T13:58:36;12.13;;;4.00;;
17987;SDS011;9119;50.932;5.342;2023-04-07T14:01:02;14.27;;;4.20;;
17987;SDS011;9119;50.932;5.342;2023-04-07T14:03:28;14.80;;;4.60;;
17987;SDS011;9119;50.932;5.342;2023-04-07T14:05:54;10.33;;;3.63;;
17987;SDS011;9119;50.932;5.342;2023-04-07T14:08:25;8.67;;;3.23;;
17987;SDS011;9119;50.932;5.342;2023-04-07T14:10:51;13.90;;;3.83;;
17987;SDS011;9119;50.932;5.342;2023-04-07T14:13:17;6.77;;;3.73;;
17987;SDS011;9119;50.932;5.342;2023-04-07T14:15:43;11.30;;;3.97;;
17987;SDS011;9119;50.932;5.342;2023-04-07T14:18:09;8.37;;;3.53;;
17987;SDS011;9119;50.932;5.342;2023-04-07T14:20:35;8.27;;;3.07;;
17987;SDS011;9119;50.932;5.342;2023-04-07T14:23:01;14.60;;;3.20;;
17987;SDS011;9119;50.932;5.342;2023-04-07T14:25:27;10.97;;;3.20;;
17987;SDS011;9119;50.932;5.342;2023-04-07T14:27:52;9.17;;;3.97;;
17987;SDS011;9119;50.932;5.342;2023-04-07T14:30:18;11.20;;;4.60;;
17987;SDS011;9119;50.932;5.342;2023-04-07T14:32:44;10.73;;;4.10;;
17987;SDS011;9119;50.932;5.342;2023-04-07T14:35:10;11.73;;;3.83;;
17987;SDS011;9119;50.932;5.342;2023-04-07T14:37:36;9.00;;;4.17;;
17987;SDS011;9119;50.932;5.342;2023-04-07T14:40:02;7.83;;;4.23;;
17987;SDS011;9119;50.932;5.342;2023-04-07T14:42:29;15.83;;;5.13;;
17987;SDS011;9119;50.932;5.342;2023-04-07T14:44:55;13.87;;;4.63;;
17987;SDS011;9119;50.932;5.342;2023-04-07T14:47:23;10.73;;;5.00;;
17987;SDS011;9119;50.932;5.342;2023-04-07T14:49:49;20.23;;;5.77;;
17987;SDS011;9119;50.932;5.342;2023-04-07T14:52:15;10.80;;;4.60;;
17987;SDS011;9119;50.932;5.342;2023-04-07T14:54:41;17.40;;;5.03;;
17987;SDS011;9119;50.932;5.342;2023-04-07T14:57:07;17.80;;;4.90;;
17987;SDS011;9119;50.932;5.342;2023-04-07T14:59:32;10.90;;;4.53;;
17987;SDS011;9119;50.932;5.342;2023-04-07T15:01:58;11.10;;;4.10;;
17987;SDS011;9119;50.932;5.342;2023-04-07T15:04:24;10.87;;;3.67;;
17987;SDS011;9119;50.932;5.342;2023-04-07T15:06:50;8.63;;;3.87;;